Latest Weather Observations for Cooktown

IDQ60801

Issued at 8:35 pm EST Tuesday 21 October 2014 (issued every 30 minutes, with the page automatically refreshed every 10 minutes)

About weather observations | Map of weather stations | Latest weather observations for QLD | Other Formats
Station Details ID: 031209 Name: COOKTOWN AIRPORT Lat: -15.45 Lon: 145.19 Height: 4.8 m
Data from the previous 72 hours. | See also: Recent months at Cooktown
Date/Time
EST
Temp
°C
App
Temp
°C
Dew
Point
Rel
Hum
%
Delta-T
°C
Wind Press
QNH
hPa
Press
MSL
hPa
Rain
since 9 am
mm
Dir
 
Spd
km/h
Gust
km/h
Spd
kts
Gust
kts
21/08:30pm 24.2 22.5 19.0 72 3.3 ESE 26 43 14 23 1018.0 - 0.0
21/08:00pm 24.3 23.7 18.9 72 3.4 ESE 20 41 11 22 1018.0 - 0.0
21/07:30pm 24.5 23.1 18.8 70 3.6 ESE 24 39 13 21 1017.7 - 0.0
21/07:00pm 24.5 23.6 19.0 71 3.5 ESE 22 33 12 18 1017.2 - 0.0
21/06:30pm 24.6 23.2 18.8 70 3.7 ESE 24 33 13 18 1017.0 - 0.0
21/06:00pm 25.0 24.4 18.9 69 3.9 ESE 20 39 11 21 1016.6 1016.5 0.0
21/05:30pm 25.4 23.2 18.6 66 4.3 SE 28 43 15 23 1016.3 - 0.0
21/05:16pm 25.8 23.1 18.4 63 4.7 ESE 30 48 16 26 1016.1 - 0.0
21/05:00pm 25.8 23.4 18.2 63 4.8 ESE 28 43 15 23 1016.0 - 0.0
21/04:30pm 26.4 23.8 17.8 59 5.4 SE 28 41 15 22 1015.7 - 0.0
21/04:06pm 26.8 23.6 18.1 59 5.5 ESE 32 50 17 27 1015.6 - 0.0
21/04:00pm 26.9 23.0 17.9 57 5.7 ESE 35 50 19 27 1015.6 - 0.0
21/03:32pm 26.8 23.5 17.9 58 5.6 ESE 32 50 17 27 1015.7 - 0.0
21/03:30pm 27.1 23.5 17.7 56 5.9 ESE 33 50 18 27 1015.7 - 0.0
21/03:00pm 27.1 23.5 17.7 56 5.9 ESE 33 56 18 30 1015.8 1015.7 0.0
21/02:51pm 28.2 25.2 17.8 53 6.6 ESE 30 48 16 26 1015.8 - 0.0
21/02:30pm 28.6 25.5 18.3 53 6.6 ESE 32 44 17 24 1015.9 - 0.0
21/02:00pm 27.9 24.0 16.4 49 7.1 ESE 32 52 17 28 1016.0 - 0.0
21/01:30pm 28.3 25.1 16.2 47 7.5 SE 28 46 15 25 1016.3 - 0.0
21/01:15pm 28.2 25.3 17.0 50 7.0 SE 28 46 15 25 1016.4 - 0.0
21/01:00pm 28.5 25.0 16.4 48 7.5 ESE 30 44 16 24 1016.6 - 0.0
21/12:30pm 28.1 24.7 16.7 50 7.1 ESE 30 50 16 27 1016.9 - 0.0
21/12:29pm 28.0 24.4 16.2 48 7.3 ESE 30 50 16 27 1016.9 - 0.0
21/12:00pm 29.3 26.4 16.2 45 8.1 SE 26 44 14 24 1017.5 1017.4 0.0
21/11:33am 28.2 25.0 16.4 48 7.3 ESE 28 48 15 26 1017.7 - 0.0
21/11:30am 27.5 24.6 16.1 49 7.0 SE 26 39 14 21 1017.8 - 0.0
21/11:00am 27.4 23.3 16.0 49 7.0 ESE 32 46 17 25 1018.0 - 0.0
21/10:30am 27.8 25.0 16.3 49 7.1 SE 26 37 14 20 1018.2 - 0.0
21/10:00am 26.9 24.1 16.3 52 6.5 ESE 26 43 14 23 1018.3 - 0.0
21/09:30am 26.0 22.5 16.4 55 5.9 ESE 30 43 16 23 1018.3 - 0.0
21/09:00am 25.5 22.3 16.4 57 5.6 SE 28 48 15 26 1018.2 1018.1 0.0
21/08:52am 26.2 22.7 16.5 55 6.0 ESE 30 48 16 26 1018.1 - 0.0
21/08:30am 25.9 23.2 16.5 56 5.8 SE 26 39 14 21 1017.9 - 0.0
21/08:00am 25.3 22.2 16.5 58 5.4 ESE 28 43 15 23 1017.7 - 0.0
21/07:30am 25.3 22.7 15.9 56 5.7 ESE 24 39 13 21 1017.4 - 0.0
21/07:00am 25.0 22.6 16.3 58 5.3 ESE 24 33 13 18 1016.9 - 0.0
21/06:30am 24.2 21.9 15.8 59 5.1 ESE 22 33 12 18 1016.6 - 0.0
21/06:00am 23.9 21.3 16.0 61 4.8 ESE 24 33 13 18 1016.4 1016.2 0.0
21/05:30am 24.0 21.7 16.7 63 4.5 ESE 24 33 13 18 1016.3 - 0.0
21/05:00am 23.8 22.4 17.9 69 3.7 ESE 22 33 12 18 1015.8 - 0.0
21/04:30am 23.8 22.3 17.7 68 3.8 ESE 22 33 12 18 1015.7 - 0.0
21/04:00am 23.7 22.3 17.9 70 3.6 ESE 22 39 12 21 1015.6 - 0.0
21/03:30am 23.4 22.2 17.4 69 3.7 ESE 20 30 11 16 1015.8 - 0.0
21/03:00am 23.5 22.6 18.1 71 3.4 ESE 20 32 11 17 1015.8 1015.7 0.0
21/02:30am 23.9 22.2 18.0 69 3.7 ESE 24 39 13 21 1015.9 - 0.0
21/02:00am 23.9 22.4 18.5 72 3.4 ESE 24 37 13 20 1016.2 - 0.0
21/01:30am 24.0 23.1 19.1 74 3.1 ESE 22 32 12 17 1016.3 - 0.0
21/01:00am 23.9 22.6 19.0 74 3.1 ESE 24 39 13 21 1016.7 - 0.0
21/12:30am 24.1 23.1 18.9 72 3.3 ESE 22 32 12 17 1017.1 - 0.0
21/12:00am 24.1 23.3 18.4 70 3.6 ESE 20 39 11 21 1017.4 1017.3 0.0
 
Date/Time
EST
Temp
°C
App
Temp
°C
Dew
Point
Rel
Hum
%
Delta-T
°C
Wind Press
QNH
hPa
Press
MSL
hPa
Rain
since 9 am
mm
Dir
 
Spd
km/h
Gust
km/h
Spd
kts
Gust
kts
20/11:30pm 24.1 22.6 18.6 71 3.5 ESE 24 35 13 19 1017.6 - 0.0
20/11:00pm 24.2 23.3 19.0 72 3.3 ESE 22 32 12 17 1017.7 - 0.0
20/10:30pm 24.3 22.8 18.6 70 3.6 ESE 24 41 13 22 1017.7 - 0.0
20/10:08pm 24.4 22.1 18.4 69 3.8 ESE 28 46 15 25 1017.8 - 0.0
20/10:00pm 24.4 22.7 18.9 71 3.5 ESE 26 37 14 20 1017.9 - 0.0
20/09:30pm 24.3 22.9 18.8 71 3.5 ESE 24 39 13 21 1017.8 - 0.0
20/09:00pm 24.5 23.6 19.0 71 3.5 ESE 22 39 12 21 1017.6 1017.4 0.0
20/08:30pm 24.4 22.9 18.5 69 3.7 SE 24 35 13 19 1017.4 - 0.0
20/08:00pm 24.3 22.4 18.6 70 3.6 ESE 26 35 14 19 1017.0 - 0.0
20/07:30pm 24.4 23.3 18.7 70 3.6 SE 22 41 12 22 1016.7 - 0.0
20/07:00pm 24.5 23.0 18.5 69 3.8 SE 24 43 13 23 1016.4 - 0.0
20/06:30pm 24.4 23.7 18.7 70 3.6 SE 20 33 11 18 1016.2 - 0.0
20/06:02pm 24.7 22.6 18.9 70 3.7 SE 28 46 15 25 1016.1 - 0.0
20/06:00pm 24.7 22.5 18.7 69 3.8 SE 28 41 15 22 1016.0 1015.9 0.0
20/05:39pm 24.8 22.7 19.0 70 3.7 SE 28 48 15 26 1015.8 - 0.0
20/05:30pm 25.7 24.8 19.1 67 4.2 SE 22 35 12 19 1015.7 - 0.0
20/05:12pm 25.4 23.3 19.0 67 4.1 ESE 28 46 15 25 1015.5 - 0.0
20/05:00pm 25.5 24.0 18.6 65 4.4 SE 24 43 13 23 1015.3 - 0.0
20/04:30pm 26.3 23.9 19.0 64 4.7 SE 30 44 16 24 1015.1 - 0.0
20/04:00pm 26.3 24.1 18.8 63 4.8 ESE 28 46 15 25 1015.0 - 0.0
20/03:36pm 25.9 23.2 17.6 60 5.2 ESE 28 46 15 25 1015.1 - 0.0
20/03:30pm 26.0 22.6 17.7 60 5.2 ESE 32 43 17 23 1015.1 - 0.0
20/03:05pm 26.4 23.3 18.5 62 5.0 ESE 32 50 17 27 1015.2 - 0.0
20/03:00pm 27.0 23.2 18.2 58 5.6 ESE 35 50 19 27 1015.2 1015.1 0.0
20/02:45pm 26.5 23.1 18.1 60 5.3 ESE 33 54 18 29 1015.3 - 0.0
20/02:30pm 27.4 23.9 18.8 59 5.5 ESE 35 46 19 25 1015.4 - 0.0
20/02:07pm 28.1 25.0 18.8 57 6.0 ESE 33 52 18 28 1015.6 - 0.0
20/02:00pm 27.5 24.0 19.5 61 5.2 ESE 37 52 20 28 1015.5 - 0.0
20/01:30pm 28.1 25.0 18.9 57 5.9 ESE 33 54 18 29 1015.8 - 0.0
20/01:00pm 27.9 23.8 18.3 56 6.1 ESE 37 57 20 31 1016.1 - 0.0
20/12:37pm 27.9 24.7 18.7 57 5.9 ESE 33 52 18 28 1016.5 - 0.0
20/12:30pm 28.7 25.3 19.1 56 6.2 ESE 35 50 19 27 1016.5 - 0.0
20/12:00pm 28.1 25.5 18.6 56 6.1 ESE 30 46 16 25 1017.0 1017.0 0.0
20/11:33am 26.8 23.8 18.6 60 5.2 SE 32 50 17 27 1017.5 - 0.0
20/11:30am 26.8 24.1 18.5 60 5.3 SE 30 44 16 24 1017.5 - 0.0
20/11:00am 27.1 23.9 18.5 59 5.5 ESE 33 48 18 26 1017.8 - 0.0
20/10:37am 26.8 23.5 17.9 58 5.6 ESE 32 54 17 29 1017.8 - 0.0
20/10:30am 26.5 23.8 18.5 61 5.1 ESE 30 39 16 21 1017.8 - 0.0
20/10:00am 26.9 24.2 18.4 59 5.4 ESE 30 48 16 26 1018.0 - 0.0
20/09:50am 26.1 23.8 18.4 62 4.9 SE 28 46 15 25 1018.2 - 0.0
20/09:30am 27.1 24.9 18.6 59 5.4 ESE 28 43 15 23 1018.4 - 0.0
20/09:00am 26.9 24.3 18.6 60 5.3 ESE 30 44 16 24 1018.4 1018.3 0.2
20/08:30am 26.0 23.6 18.2 62 4.9 ESE 28 39 15 21 1018.3 - 0.2
20/08:11am 26.2 23.7 18.1 61 5.1 SE 28 46 15 25 1018.1 - 0.2
20/08:00am 25.8 23.5 18.4 63 4.7 SE 28 43 15 23 1018.1 - 0.2
20/07:30am 25.8 23.8 18.4 63 4.7 ESE 26 39 14 21 1017.8 - 0.2
20/07:00am 24.7 22.9 18.7 69 3.8 ESE 26 41 14 22 1017.4 - 0.2
20/06:30am 24.5 23.3 18.3 68 3.9 ESE 22 41 12 22 1016.9 - 0.2
20/06:00am 24.0 22.8 18.4 71 3.5 ESE 22 37 12 20 1016.7 1016.5 0.2
20/05:30am 24.0 22.4 18.3 70 3.6 SE 24 39 13 21 1016.3 - 0.2
20/05:00am 24.0 22.4 18.4 71 3.5 ESE 24 32 13 17 1016.1 - 0.2
20/04:30am 24.0 22.0 18.3 70 3.6 ESE 26 43 14 23 1015.9 - 0.2
20/04:00am 24.1 22.6 18.6 71 3.5 ESE 24 37 13 20 1015.8 - 0.2
20/03:30am 24.0 22.2 17.9 68 3.8 ESE 24 33 13 18 1015.8 - 0.2
20/03:00am 24.0 22.2 17.9 68 3.8 ESE 24 37 13 20 1015.9 1015.9 0.2
20/02:30am 24.2 22.5 18.0 68 3.9 ESE 24 37 13 20 1016.0 - 0.2
20/02:18am 24.3 21.9 18.3 69 3.8 ESE 28 52 15 28 1016.1 - 0.2
20/02:00am 24.2 22.8 18.8 72 3.4 SE 24 37 13 20 1016.2 - 0.2
20/01:30am 24.3 22.9 18.8 71 3.5 ESE 24 37 13 20 1016.4 - 0.2
20/01:00am 24.5 23.1 18.7 70 3.7 ESE 24 35 13 19 1016.9 - 0.2
20/12:30am 24.3 23.9 18.8 71 3.5 ESE 19 32 10 17 1017.4 - 0.2
20/12:00am 24.4 22.9 18.5 69 3.7 ESE 24 39 13 21 1017.7 1017.6 0.2
 
Date/Time
EST
Temp
°C
App
Temp
°C
Dew
Point
Rel
Hum
%
Delta-T
°C
Wind Press
QNH
hPa
Press
MSL
hPa
Rain
since 9 am
mm
Dir
 
Spd
km/h
Gust
km/h
Spd
kts
Gust
kts
19/11:30pm 24.3 22.3 18.4 69 3.7 ESE 26 39 14 21 1018.0 - 0.2
19/11:00pm 24.6 22.8 18.8 70 3.7 ESE 26 39 14 21 1018.2 - 0.2
19/10:30pm 24.5 23.0 18.5 69 3.8 SE 24 37 13 20 1018.4 - 0.2
19/10:04pm 24.5 22.1 18.3 68 3.9 ESE 28 46 15 25 1018.5 - 0.2
19/10:00pm 24.3 22.3 18.3 69 3.8 SE 26 44 14 24 1018.5 - 0.2
19/09:30pm 23.9 23.2 18.7 72 3.3 SE 20 37 11 20 1018.3 - 0.2
19/09:00pm 24.9 23.2 18.1 66 4.3 SE 24 50 13 27 1018.0 1017.8 0.0
19/08:46pm 24.9 22.5 18.2 66 4.2 ESE 28 46 15 25 1017.8 - 0.0
19/08:30pm 24.8 22.6 17.8 65 4.4 SE 26 39 14 21 1017.7 - 0.0
19/08:00pm 24.3 23.8 18.6 70 3.6 SE 19 32 10 17 1017.5 - 0.0
19/07:30pm 23.6 21.9 18.9 75 3.0 SE 26 41 14 22 1017.2 - 0.0
19/07:00pm 24.0 22.9 17.7 68 3.9 SE 20 37 11 20 1016.9 - 0.0
19/06:30pm 24.0 22.7 19.0 73 3.2 SE 24 39 13 21 1016.8 - 0.0
19/06:00pm 24.2 22.4 18.8 72 3.4 ESE 26 41 14 22 1016.5 1016.4 0.0
19/05:35pm 24.8 22.6 18.8 69 3.8 SE 28 46 15 25 1016.2 - 0.0
19/05:30pm 24.8 23.3 18.6 68 3.9 ESE 24 41 13 22 1016.1 - 0.0
19/05:00pm 25.5 22.9 18.6 65 4.4 SE 30 50 16 27 1015.7 - 0.0
19/04:33pm 25.9 23.8 18.9 65 4.5 SE 28 46 15 25 1015.4 - 0.0
19/04:30pm 26.0 23.8 18.8 64 4.6 SE 28 44 15 24 1015.4 - 0.0
19/04:00pm 26.1 23.0 18.9 64 4.6 ESE 33 48 18 26 1015.3 - 0.0
19/03:39pm 26.7 23.1 17.6 57 5.7 ESE 33 54 18 29 1015.0 - 0.0
19/03:30pm 27.5 24.2 18.4 57 5.8 ESE 33 46 18 25 1015.1 - 0.0
19/03:14pm 27.3 23.8 17.4 54 6.2 ESE 32 50 17 27 1015.1 - 0.0
19/03:00pm 26.4 23.5 18.9 63 4.8 SSE 32 44 17 24 1015.1 1015.0 0.0
19/02:33pm 28.3 25.0 18.4 55 6.3 ESE 33 52 18 28 1015.3 - 0.0
19/02:30pm 27.3 23.5 18.0 56 5.9 ESE 35 52 19 28 1015.3 - 0.0
19/02:00pm 27.1 23.4 17.4 55 6.1 ESE 33 52 18 28 1015.4 - 0.0
19/01:30pm 28.0 24.7 17.9 54 6.4 ESE 32 50 17 27 1015.6 - 0.0
19/01:00pm 27.6 23.8 17.2 53 6.5 ESE 33 54 18 29 1016.2 - 0.0
19/12:30pm 27.5 24.3 17.3 53 6.4 SE 30 48 16 26 1016.6 - 0.0
19/12:00pm 26.7 23.4 18.0 59 5.5 ESE 32 50 17 27 1017.1 1017.0 0.0
19/11:30am 28.2 24.8 17.6 52 6.7 ESE 32 50 17 27 1017.3 - 0.0
19/11:03am 27.3 24.5 17.4 54 6.2 SE 28 46 15 25 1017.5 - 0.0
19/11:00am 27.9 24.9 17.8 54 6.4 SE 30 46 16 25 1017.6 - 0.0
19/10:30am 27.3 23.8 18.0 56 5.9 ESE 33 54 18 29 1017.8 - 0.0
19/10:15am 26.6 24.4 18.6 61 5.1 ESE 28 46 15 25 1017.9 - 0.0
19/10:00am 26.8 23.7 17.6 57 5.8 ESE 30 46 16 25 1018.0 - 0.0
19/09:39am 26.3 22.9 17.7 59 5.4 ESE 32 50 17 27 1018.1 - 0.0
19/09:30am 26.1 23.2 18.0 61 5.1 ESE 30 44 16 24 1018.2 - 0.0
19/09:00am 26.2 22.8 18.1 61 5.1 ESE 33 48 18 26 1018.2 1018.1 0.0
19/08:30am 26.0 22.4 17.3 58 5.4 ESE 32 44 17 24 1018.2 - 0.0
19/08:00am 26.4 24.2 17.8 59 5.4 ESE 26 41 14 22 1018.1 - 0.0
19/07:30am 25.6 23.9 17.2 59 5.2 ESE 22 41 12 22 1017.8 - 0.0
19/07:00am 25.1 22.9 17.0 60 5.0 ESE 24 39 13 21 1017.4 - 0.0
19/06:30am 24.5 22.3 16.9 62 4.7 ESE 24 35 13 19 1017.1 - 0.0
19/06:00am 24.0 22.5 17.6 67 4.0 SE 22 35 12 19 1016.8 1016.6 0.0
19/05:30am 23.6 22.8 18.0 71 3.5 SE 19 30 10 16 1016.6 - 0.0
19/05:00am 24.1 21.9 17.9 68 3.9 SE 26 43 14 23 1016.3 - 0.0
19/04:30am 23.9 21.9 17.5 67 4.0 ESE 24 35 13 19 1016.1 - 0.0
19/04:00am 23.9 22.5 18.9 73 3.2 SE 24 37 13 20 1015.9 - 0.0
19/03:30am 24.2 23.4 18.0 68 3.9 ESE 19 30 10 16 1015.8 - 0.0
19/03:00am 24.1 23.4 18.6 71 3.5 ESE 20 30 11 16 1015.8 1015.7 0.0
19/02:30am 24.0 22.3 18.1 69 3.7 SE 24 37 13 20 1016.1 - 0.0
19/02:00am 24.3 22.4 17.7 66 4.1 ESE 24 35 13 19 1016.4 - 0.0
19/01:30am 23.9 21.9 17.3 66 4.1 ESE 24 41 13 22 1016.9 - 0.0
19/01:00am 24.0 22.1 17.7 68 3.9 SE 24 37 13 20 1017.1 - 0.0
19/12:30am 24.2 22.3 17.6 66 4.1 SE 24 35 13 19 1017.4 - 0.0
19/12:00am 24.5 21.8 17.6 65 4.3 SE 28 44 15 24 1017.7 1017.6 0.0
 
Date/Time
EST
Temp
°C
App
Temp
°C
Dew
Point
Rel
Hum
%
Delta-T
°C
Wind Press
QNH
hPa
Press
MSL
hPa
Rain
since 9 am
mm
Dir
 
Spd
km/h
Gust
km/h
Spd
kts
Gust
kts
18/11:30pm 24.5 22.2 17.6 65 4.3 ESE 26 39 14 21 1018.1 - 0.0
18/11:20pm 24.7 22.0 17.5 64 4.5 SE 28 46 15 25 1018.2 - 0.0
18/11:00pm 24.7 22.9 17.8 65 4.3 SE 24 35 13 19 1018.5 - 0.0
18/10:30pm 24.6 21.9 17.5 64 4.4 SE 28 50 15 27 1018.5 - 0.0
18/10:23pm 24.8 22.0 17.4 63 4.6 SE 28 50 15 27 1018.5 - 0.0
18/10:00pm 24.6 23.2 17.9 66 4.2 SE 22 39 12 21 1018.5 - 0.0
18/09:30pm 24.6 22.8 17.9 66 4.2 SE 24 37 13 20 1018.5 - 0.0
18/09:00pm 24.8 23.3 17.6 64 4.5 SE 22 39 12 21 1018.4 1018.3 0.0
18/08:40pm 24.8 21.9 17.0 62 4.8 SE 28 48 15 26 1018.3 - 0.0

Other Formats:

Comma delimited format used in spreadsheet applications
http://www.bom.gov.au/fwo/IDQ60801/IDQ60801.95283.axf

JavaScript Object Notation format (JSON) in row-major order
http://www.bom.gov.au/fwo/IDQ60801/IDQ60801.95283.json